createdAt,value
2019-03-27T00:01:06.562Z,45.51
2019-03-27T00:02:11.971Z,45.59
2019-03-27T00:03:16.502Z,45.67
2019-03-27T00:04:20.957Z,45.81
2019-03-27T00:05:25.746Z,45.80
2019-03-27T00:06:30.196Z,45.77
2019-03-27T00:07:34.655Z,45.73
2019-03-27T00:08:39.188Z,45.74
2019-03-27T00:09:44.133Z,45.82
2019-03-27T00:10:49.080Z,45.86
2019-03-27T00:11:53.448Z,45.68
2019-03-27T00:12:58.151Z,45.55
2019-03-27T00:14:02.929Z,45.54
2019-03-27T00:15:12.976Z,45.61
2019-03-27T00:16:14.727Z,45.63
2019-03-27T00:17:19.180Z,45.68
2019-03-27T00:18:23.890Z,45.67
2019-03-27T00:19:28.260Z,45.69
2019-03-27T00:20:33.283Z,45.55
2019-03-27T00:21:37.654Z,45.51
2019-03-27T00:22:42.108Z,45.53
2019-03-27T00:23:46.474Z,45.59
2019-03-27T00:24:50.921Z,45.62
2019-03-27T00:25:55.391Z,45.59
2019-03-27T00:26:59.772Z,45.65
2019-03-27T00:28:04.229Z,45.72
2019-03-27T00:29:08.751Z,45.73
2019-03-27T00:30:13.492Z,45.70
2019-03-27T00:31:18.030Z,45.77
2019-03-27T00:32:22.650Z,45.81
2019-03-27T00:33:27.105Z,45.79
2019-03-27T00:34:31.497Z,45.79
2019-03-27T00:35:36.008Z,45.80
2019-03-27T00:36:40.552Z,45.78
2019-03-27T00:37:45.179Z,45.78
2019-03-27T00:38:49.799Z,45.80
2019-03-27T00:39:54.814Z,45.79
2019-03-27T00:40:59.451Z,45.74
2019-03-27T00:42:03.898Z,45.70
2019-03-27T00:43:08.448Z,45.75
2019-03-27T00:44:12.811Z,45.96
2019-03-27T00:45:26.336Z,46.26
2019-03-27T00:46:24.148Z,46.49
2019-03-27T00:47:28.519Z,46.64
2019-03-27T00:48:33.134Z,46.73
2019-03-27T00:49:37.756Z,46.79
2019-03-27T00:50:42.212Z,46.86
2019-03-27T00:51:46.929Z,46.92
2019-03-27T00:52:51.294Z,47.01
2019-03-27T00:53:55.671Z,47.04
2019-03-27T00:55:00.369Z,47.04
2019-03-27T00:56:04.833Z,47.02
2019-03-27T00:57:09.626Z,47.05
2019-03-27T00:58:14.250Z,47.00
2019-03-27T00:59:19.398Z,47.02
2019-03-27T01:00:30.935Z,47.03
2019-03-27T01:01:35.715Z,46.98
2019-03-27T01:02:40.243Z,46.98
2019-03-27T01:03:45.028Z,46.98
2019-03-27T01:04:49.475Z,47.01
2019-03-27T01:05:54.086Z,46.96
2019-03-27T01:06:58.628Z,46.99
2019-03-27T01:08:03.078Z,47.01
2019-03-27T01:09:07.613Z,47.11
2019-03-27T01:10:12.146Z,47.21
2019-03-27T01:11:16.683Z,47.31
2019-03-27T01:12:21.150Z,47.44
2019-03-27T01:13:25.772Z,47.52
2019-03-27T01:14:30.303Z,47.62
2019-03-27T01:15:40.190Z,47.72
2019-03-27T01:16:41.296Z,47.81
2019-03-27T01:17:46.004Z,47.87
2019-03-27T01:18:50.624Z,47.87
2019-03-27T01:19:55.076Z,47.84
2019-03-27T01:21:00.023Z,47.84
2019-03-27T01:22:04.562Z,47.85
2019-03-27T01:23:08.937Z,47.84
2019-03-27T01:24:13.470Z,47.90
2019-03-27T01:25:17.929Z,47.95
2019-03-27T01:26:22.302Z,47.98
2019-03-27T01:27:26.688Z,48.02
2019-03-27T01:28:31.304Z,48.05
2019-03-27T01:29:36.177Z,48.02
2019-03-27T01:30:41.195Z,48.07
2019-03-27T01:31:45.905Z,48.08
2019-03-27T01:32:50.296Z,48.12
2019-03-27T01:33:54.828Z,48.18
2019-03-27T01:34:59.202Z,48.26
2019-03-27T01:36:03.744Z,48.36
2019-03-27T01:37:08.138Z,48.48
2019-03-27T01:38:12.859Z,48.60
2019-03-27T01:39:17.232Z,48.68
2019-03-27T01:40:21.697Z,48.73
2019-03-27T01:41:26.139Z,48.74
2019-03-27T01:42:30.606Z,48.67
2019-03-27T01:43:35.029Z,48.66
2019-03-27T01:44:39.433Z,48.66
2019-03-27T01:45:52.856Z,48.64
2019-03-27T01:46:50.541Z,48.66
2019-03-27T01:47:55.234Z,48.58
2019-03-27T01:49:00.003Z,48.57
2019-03-27T01:50:04.883Z,48.59
2019-03-27T01:51:09.345Z,48.59
2019-03-27T01:52:13.797Z,48.57
2019-03-27T01:53:18.506Z,48.61
2019-03-27T01:54:22.878Z,48.62
2019-03-27T01:55:27.824Z,48.67
2019-03-27T01:56:32.202Z,48.72
2019-03-27T01:57:36.667Z,48.80
2019-03-27T01:58:41.196Z,48.85
2019-03-27T01:59:45.572Z,48.85
2019-03-27T02:00:50.105Z,48.87
2019-03-27T02:01:54.809Z,48.83
2019-03-27T02:02:59.528Z,48.80
2019-03-27T02:04:04.791Z,48.83
2019-03-27T02:05:09.434Z,48.86
2019-03-27T02:06:13.810Z,48.83
2019-03-27T02:07:18.254Z,48.90
2019-03-27T02:08:22.891Z,49.01
2019-03-27T02:09:27.587Z,49.10
2019-03-27T02:10:32.115Z,49.18
2019-03-27T02:11:36.828Z,49.23
2019-03-27T02:12:41.294Z,49.33
2019-03-27T02:13:45.824Z,49.40
2019-03-27T02:14:50.274Z,49.46
2019-03-27T02:16:06.160Z,49.55
2019-03-27T02:17:01.216Z,49.63
2019-03-27T02:18:05.774Z,49.69
2019-03-27T02:19:10.295Z,49.74
2019-03-27T02:20:14.751Z,49.80
2019-03-27T02:21:19.526Z,49.86
2019-03-27T02:22:24.467Z,49.93
2019-03-27T02:23:29.017Z,49.98
2019-03-27T02:24:33.394Z,49.99
2019-03-27T02:25:37.841Z,50.02
2019-03-27T02:26:42.538Z,50.05
2019-03-27T02:27:47.328Z,50.12
2019-03-27T02:28:51.780Z,50.17
2019-03-27T02:29:56.231Z,50.25
2019-03-27T02:31:00.812Z,50.29
2019-03-27T02:32:05.542Z,50.38
2019-03-27T02:33:10.008Z,50.44
2019-03-27T02:34:14.954Z,50.44
2019-03-27T02:35:19.395Z,50.47
2019-03-27T02:36:24.412Z,50.46
2019-03-27T02:37:29.183Z,50.46
2019-03-27T02:38:33.832Z,50.44
2019-03-27T02:39:38.509Z,50.40
2019-03-27T02:40:43.216Z,50.33
2019-03-27T02:41:47.609Z,50.26
2019-03-27T02:42:52.044Z,50.21
2019-03-27T02:43:56.523Z,50.17
2019-03-27T02:45:00.888Z,50.16
2019-03-27T02:46:05.446Z,50.11
2019-03-27T02:47:09.902Z,50.14
2019-03-27T02:48:14.373Z,50.10
2019-03-27T02:49:18.988Z,50.08
2019-03-27T02:50:24.187Z,50.06
2019-03-27T02:51:28.811Z,50.01
2019-03-27T02:52:33.185Z,49.94
2019-03-27T02:53:37.730Z,49.90
2019-03-27T02:54:42.176Z,49.84
2019-03-27T02:55:46.873Z,49.83
2019-03-27T02:56:51.256Z,49.86
2019-03-27T02:57:56.247Z,49.83
2019-03-27T02:59:00.704Z,49.85
2019-03-27T03:00:06.603Z,49.84
2019-03-27T03:01:11.124Z,49.83
2019-03-27T03:02:16.049Z,49.88
2019-03-27T03:03:20.785Z,49.88
2019-03-27T03:04:25.401Z,49.90
2019-03-27T03:05:30.005Z,49.87
2019-03-27T03:06:34.538Z,49.86
2019-03-27T03:07:39.243Z,49.88
2019-03-27T03:08:43.705Z,49.88
2019-03-27T03:09:48.408Z,49.89
2019-03-27T03:10:52.937Z,49.90
2019-03-27T03:11:57.564Z,49.91
2019-03-27T03:13:02.093Z,49.90
2019-03-27T03:14:06.632Z,49.92
2019-03-27T03:15:11.264Z,49.98
2019-03-27T03:16:16.035Z,50.08
2019-03-27T03:17:20.479Z,50.20
2019-03-27T03:18:25.027Z,50.30
2019-03-27T03:19:29.736Z,50.37
2019-03-27T03:20:34.183Z,50.44
2019-03-27T03:21:38.569Z,50.48
2019-03-27T03:22:43.008Z,50.53
2019-03-27T03:23:47.730Z,50.57
2019-03-27T03:24:52.175Z,50.59
2019-03-27T03:25:56.700Z,50.58
2019-03-27T03:27:01.226Z,50.52
2019-03-27T03:28:05.756Z,50.49
2019-03-27T03:29:10.213Z,50.49
2019-03-27T03:30:15.668Z,50.48
2019-03-27T03:31:20.111Z,50.51
2019-03-27T03:32:24.760Z,50.49
2019-03-27T03:33:29.595Z,50.48
2019-03-27T03:34:34.653Z,50.43
2019-03-27T03:35:39.569Z,50.45
2019-03-27T03:36:44.350Z,50.41
2019-03-27T03:37:48.839Z,50.36
2019-03-27T03:38:53.194Z,50.33
2019-03-27T03:39:57.570Z,50.28
2019-03-27T03:41:02.267Z,50.25
2019-03-27T03:42:06.967Z,50.19
2019-03-27T03:43:11.740Z,50.16
2019-03-27T03:44:16.532Z,50.15
2019-03-27T03:45:21.051Z,50.13
2019-03-27T03:46:25.739Z,50.03
2019-03-27T03:47:30.133Z,49.98
2019-03-27T03:48:35.061Z,49.91
2019-03-27T03:49:39.764Z,49.83
2019-03-27T03:50:45.449Z,49.81
2019-03-27T03:51:49.965Z,49.82
2019-03-27T03:52:54.725Z,49.85
2019-03-27T03:54:00.070Z,49.89
2019-03-27T03:55:04.947Z,49.94
2019-03-27T03:56:10.896Z,49.96
2019-03-27T03:57:15.945Z,49.97
2019-03-27T03:58:21.571Z,50.01
2019-03-27T03:59:27.652Z,50.03
2019-03-27T04:00:33.643Z,50.04
2019-03-27T04:01:39.902Z,50.10
2019-03-27T04:02:45.430Z,50.08
2019-03-27T04:03:52.001Z,50.08
2019-03-27T04:04:57.811Z,50.12
2019-03-27T04:06:02.674Z,50.19
2019-03-27T04:07:07.201Z,50.25
2019-03-27T04:08:11.973Z,50.30
2019-03-27T04:09:16.760Z,50.36
2019-03-27T04:10:21.212Z,50.45
2019-03-27T04:11:25.580Z,50.55
2019-03-27T04:12:30.276Z,50.70
2019-03-27T04:13:34.898Z,50.87
2019-03-27T04:14:39.280Z,51.04
2019-03-27T04:15:43.732Z,51.21
2019-03-27T04:16:48.186Z,51.35
2019-03-27T04:17:52.817Z,51.51
2019-03-27T04:18:57.442Z,51.63
2019-03-27T04:20:02.057Z,51.72
2019-03-27T04:21:06.424Z,51.82
2019-03-27T04:22:11.121Z,51.86
2019-03-27T04:23:15.979Z,51.85
2019-03-27T04:24:20.854Z,51.90
2019-03-27T04:25:25.326Z,51.89
2019-03-27T04:26:33.406Z,51.95
2019-03-27T04:27:36.329Z,51.96
2019-03-27T04:28:40.960Z,51.94
2019-03-27T04:29:45.580Z,51.94
2019-03-27T04:30:50.344Z,51.96
2019-03-27T04:31:54.975Z,51.96
2019-03-27T04:32:59.412Z,52.00
2019-03-27T04:34:03.800Z,52.03
2019-03-27T04:35:08.325Z,52.02
2019-03-27T04:36:13.012Z,52.04
2019-03-27T04:37:17.620Z,52.04
2019-03-27T04:38:22.802Z,52.05
2019-03-27T04:39:27.172Z,52.09
2019-03-27T04:40:31.626Z,52.17
2019-03-27T04:41:36.008Z,52.21
2019-03-27T04:42:40.452Z,52.21
2019-03-27T04:43:44.825Z,52.28
2019-03-27T04:44:49.511Z,52.37
2019-03-27T04:45:54.145Z,52.41
2019-03-27T04:46:58.830Z,52.50
2019-03-27T04:48:03.210Z,52.56
2019-03-27T04:49:07.930Z,52.62
2019-03-27T04:50:12.565Z,52.72
2019-03-27T04:51:17.194Z,52.81
2019-03-27T04:52:21.569Z,52.90
2019-03-27T04:53:26.015Z,52.92
2019-03-27T04:54:30.464Z,52.94
2019-03-27T04:55:35.183Z,52.99
2019-03-27T04:56:39.799Z,53.07
2019-03-27T04:57:44.247Z,53.19
2019-03-27T04:58:48.693Z,53.26
2019-03-27T04:59:53.385Z,53.34
2019-03-27T05:00:58.077Z,53.45
2019-03-27T05:02:02.605Z,53.55
2019-03-27T05:03:07.223Z,53.65
2019-03-27T05:04:12.000Z,53.71
2019-03-27T05:05:16.462Z,53.81
2019-03-27T05:06:21.095Z,53.89
2019-03-27T05:07:25.597Z,53.96
2019-03-27T05:08:30.043Z,54.05
2019-03-27T05:09:34.744Z,54.10
2019-03-27T05:10:39.733Z,54.19
2019-03-27T05:11:44.756Z,54.27
2019-03-27T05:12:49.206Z,54.37
2019-03-27T05:13:54.087Z,54.43
2019-03-27T05:14:58.533Z,54.53
2019-03-27T05:16:03.168Z,54.62
2019-03-27T05:17:07.539Z,54.68
2019-03-27T05:18:12.074Z,54.73
2019-03-27T05:19:16.965Z,54.77
2019-03-27T05:20:21.365Z,54.85
2019-03-27T05:21:25.971Z,54.85
2019-03-27T05:22:30.423Z,54.92
2019-03-27T05:23:35.119Z,54.94
2019-03-27T05:24:39.474Z,54.97
2019-03-27T05:25:44.176Z,54.99
2019-03-27T05:26:48.623Z,55.02
2019-03-27T05:27:52.996Z,55.00
2019-03-27T05:28:57.445Z,55.02
2019-03-27T05:30:01.811Z,55.07
2019-03-27T05:31:06.434Z,55.07
2019-03-27T05:32:11.211Z,55.08
2019-03-27T05:33:15.825Z,55.09
2019-03-27T05:34:20.190Z,55.09
2019-03-27T05:35:24.566Z,55.07
2019-03-27T05:36:29.282Z,55.10
2019-03-27T05:37:34.217Z,55.12
2019-03-27T05:38:38.588Z,55.22
2019-03-27T05:39:42.963Z,55.30
2019-03-27T05:40:47.675Z,55.41
2019-03-27T05:41:52.118Z,55.52
2019-03-27T05:43:00.941Z,55.63
2019-03-27T05:44:03.376Z,55.74
2019-03-27T05:45:08.222Z,55.79
2019-03-27T05:46:13.055Z,55.84
2019-03-27T05:47:17.504Z,55.94
2019-03-27T05:48:22.497Z,55.99
2019-03-27T05:49:26.863Z,56.03
2019-03-27T05:50:31.231Z,56.04
2019-03-27T05:51:36.211Z,56.12
2019-03-27T05:52:40.725Z,56.15
2019-03-27T05:53:45.343Z,56.19
2019-03-27T05:54:49.949Z,56.20
2019-03-27T05:55:54.412Z,56.17
2019-03-27T05:56:59.124Z,56.13
2019-03-27T05:58:03.562Z,56.09
2019-03-27T05:59:08.107Z,56.04
2019-03-27T06:00:13.890Z,55.96
2019-03-27T06:01:18.345Z,55.88
2019-03-27T06:02:23.037Z,55.84
2019-03-27T06:03:27.664Z,55.82
2019-03-27T06:04:32.035Z,55.86
2019-03-27T06:05:36.408Z,55.85
2019-03-27T06:06:40.788Z,55.83
2019-03-27T06:07:45.774Z,55.78
2019-03-27T06:08:50.479Z,55.77
2019-03-27T06:09:55.097Z,55.72
2019-03-27T06:10:59.469Z,55.71
2019-03-27T06:12:03.926Z,55.67
2019-03-27T06:13:09.051Z,55.69
2019-03-27T06:14:13.756Z,55.69
2019-03-27T06:15:18.576Z,55.60
2019-03-27T06:16:23.459Z,55.50
2019-03-27T06:17:28.084Z,55.41
2019-03-27T06:18:32.548Z,55.35
2019-03-27T06:19:37.174Z,55.30
2019-03-27T06:20:41.572Z,56.13
2019-03-27T06:21:46.271Z,57.33
2019-03-27T06:22:50.658Z,57.86
2019-03-27T06:23:55.652Z,58.17
2019-03-27T06:25:00.439Z,58.56
2019-03-27T06:26:05.157Z,58.76
2019-03-27T06:27:09.566Z,58.50
2019-03-27T06:28:14.457Z,57.86
2019-03-27T06:29:18.829Z,57.25
2019-03-27T06:30:23.466Z,56.44
2019-03-27T06:31:28.158Z,55.79
2019-03-27T06:32:32.624Z,55.29
2019-03-27T06:33:37.658Z,54.97
2019-03-27T06:34:42.474Z,54.70
2019-03-27T06:35:47.023Z,54.46
2019-03-27T06:36:51.733Z,54.29
2019-03-27T06:37:56.351Z,54.21
2019-03-27T06:39:00.821Z,54.11
2019-03-27T06:40:06.158Z,54.07
2019-03-27T06:41:11.015Z,53.98
2019-03-27T06:42:15.733Z,53.89
2019-03-27T06:43:20.364Z,53.83
2019-03-27T06:44:24.820Z,53.73
2019-03-27T06:45:29.212Z,53.62
2019-03-27T06:46:33.837Z,53.47
2019-03-27T06:47:38.759Z,53.32
2019-03-27T06:48:43.130Z,53.14
2019-03-27T06:49:47.935Z,52.98
2019-03-27T06:50:52.283Z,52.88
2019-03-27T06:51:56.912Z,52.80
2019-03-27T06:53:01.547Z,52.69
2019-03-27T06:54:06.104Z,52.57
2019-03-27T06:55:10.906Z,52.51
2019-03-27T06:56:15.308Z,52.48
2019-03-27T06:57:19.772Z,52.48
2019-03-27T06:58:24.150Z,52.49
2019-03-27T06:59:28.768Z,52.51
2019-03-27T07:00:39.287Z,52.55
2019-03-27T07:01:43.745Z,52.62
2019-03-27T07:02:48.132Z,52.63
2019-03-27T07:03:53.174Z,52.69
2019-03-27T07:04:57.864Z,52.71
2019-03-27T07:06:02.239Z,52.74
2019-03-27T07:07:06.693Z,52.76
2019-03-27T07:08:11.845Z,52.82
2019-03-27T07:09:16.564Z,52.84
2019-03-27T07:10:21.012Z,52.88
2019-03-27T07:11:25.388Z,52.98
2019-03-27T07:12:30.274Z,53.03
2019-03-27T07:13:34.908Z,53.01
2019-03-27T07:14:39.795Z,52.96
2019-03-27T07:15:44.757Z,52.94
2019-03-27T07:16:49.541Z,52.90
2019-03-27T07:17:54.484Z,52.92
2019-03-27T07:18:59.383Z,52.99
2019-03-27T07:20:04.060Z,53.07
2019-03-27T07:21:08.600Z,53.14
2019-03-27T07:22:13.148Z,53.26
2019-03-27T07:23:17.661Z,53.34
2019-03-27T07:24:22.163Z,53.36
2019-03-27T07:25:26.717Z,53.34
2019-03-27T07:26:31.253Z,53.31
2019-03-27T07:27:35.838Z,53.31
2019-03-27T07:28:40.441Z,53.25
2019-03-27T07:29:45.218Z,53.13
2019-03-27T07:30:49.887Z,53.07
2019-03-27T07:31:54.461Z,53.03
2019-03-27T07:32:58.934Z,52.90
2019-03-27T07:34:03.795Z,52.90
2019-03-27T07:35:08.501Z,52.99
2019-03-27T07:36:12.965Z,53.03
2019-03-27T07:37:17.427Z,53.06
2019-03-27T07:38:21.949Z,53.06
2019-03-27T07:39:26.397Z,53.09
2019-03-27T07:40:31.383Z,53.06
2019-03-27T07:41:35.777Z,53.05
2019-03-27T07:42:40.350Z,53.03
2019-03-27T07:43:45.148Z,52.99
2019-03-27T07:44:50.139Z,52.99
2019-03-27T07:45:54.874Z,53.00
2019-03-27T07:46:59.418Z,52.99
2019-03-27T07:48:04.240Z,52.94
2019-03-27T07:49:09.007Z,52.87
2019-03-27T07:50:13.701Z,52.80
2019-03-27T07:51:18.242Z,52.76
2019-03-27T07:52:22.713Z,52.70
2019-03-27T07:53:27.685Z,52.56
2019-03-27T07:54:32.493Z,52.40
2019-03-27T07:55:37.238Z,52.28
2019-03-27T07:56:41.944Z,52.23
2019-03-27T07:57:46.741Z,52.12
2019-03-27T07:58:51.433Z,51.95
2019-03-27T07:59:55.884Z,51.83
2019-03-27T08:01:00.528Z,51.84
2019-03-27T08:02:05.063Z,51.74
2019-03-27T08:03:09.537Z,51.67
2019-03-27T08:04:14.590Z,51.63
2019-03-27T08:05:19.368Z,51.68
2019-03-27T08:06:24.118Z,51.69
2019-03-27T08:07:28.639Z,51.69
2019-03-27T08:08:33.033Z,51.59
2019-03-27T08:09:37.662Z,51.50
2019-03-27T08:10:42.374Z,51.38
2019-03-27T08:11:46.826Z,51.29
2019-03-27T08:12:51.598Z,51.18
2019-03-27T08:13:56.134Z,51.07
2019-03-27T08:15:00.511Z,50.94
2019-03-27T08:16:05.027Z,50.78
2019-03-27T08:17:09.659Z,50.74
2019-03-27T08:18:14.637Z,50.78
2019-03-27T08:19:19.394Z,50.77
2019-03-27T08:20:23.859Z,50.70
2019-03-27T08:21:31.234Z,50.70
2019-03-27T08:22:35.172Z,50.60
2019-03-27T08:23:39.823Z,50.51
2019-03-27T08:24:44.279Z,50.50
2019-03-27T08:25:48.740Z,50.38
2019-03-27T08:26:53.177Z,50.31
2019-03-27T08:27:57.654Z,50.24
2019-03-27T08:29:02.137Z,50.09
2019-03-27T08:30:09.610Z,50.03
2019-03-27T08:31:14.067Z,49.97
2019-03-27T08:32:18.602Z,49.90
2019-03-27T08:33:23.071Z,49.88
2019-03-27T08:34:27.640Z,49.74
2019-03-27T08:35:32.098Z,49.51
2019-03-27T08:36:36.679Z,49.36
2019-03-27T08:37:41.322Z,49.19
2019-03-27T08:38:45.706Z,49.04
2019-03-27T08:39:50.492Z,48.89
2019-03-27T08:40:55.210Z,48.67
2019-03-27T08:41:59.549Z,48.45
2019-03-27T08:43:04.002Z,48.29
2019-03-27T08:44:08.469Z,47.98
2019-03-27T08:45:13.736Z,47.68
2019-03-27T08:46:18.112Z,47.35
2019-03-27T08:47:22.764Z,47.01
2019-03-27T08:48:27.431Z,46.81
2019-03-27T08:49:31.896Z,46.63
2019-03-27T08:50:36.514Z,46.41
2019-03-27T08:51:40.967Z,46.21
2019-03-27T08:52:45.420Z,45.93
2019-03-27T08:53:49.802Z,45.56
2019-03-27T08:54:54.494Z,45.24
2019-03-27T08:55:59.115Z,44.97
2019-03-27T08:57:03.564Z,44.72
2019-03-27T08:58:08.010Z,44.45
2019-03-27T08:59:12.552Z,44.02
2019-03-27T09:00:21.279Z,43.65
2019-03-27T09:01:25.276Z,43.24
2019-03-27T09:02:29.729Z,42.96
2019-03-27T09:03:34.760Z,42.70
2019-03-27T09:04:39.147Z,42.43
2019-03-27T09:05:43.676Z,41.83
2019-03-27T09:06:48.405Z,41.77
2019-03-27T09:07:52.851Z,41.78
2019-03-27T09:08:57.595Z,41.64
2019-03-27T09:10:02.059Z,41.60
2019-03-27T09:11:06.594Z,41.54
2019-03-27T09:12:10.984Z,41.40
2019-03-27T09:13:15.355Z,41.16
2019-03-27T09:14:20.130Z,40.82
2019-03-27T09:15:24.818Z,40.34
2019-03-27T09:16:29.440Z,40.45
2019-03-27T09:17:34.126Z,40.41
2019-03-27T09:18:38.744Z,40.53
2019-03-27T09:19:43.460Z,40.54
2019-03-27T09:20:47.825Z,40.32
2019-03-27T09:21:52.317Z,40.06
2019-03-27T09:22:57.379Z,40.24
2019-03-27T09:24:02.106Z,40.41
2019-03-27T09:25:07.206Z,40.47
2019-03-27T09:26:11.986Z,40.43
2019-03-27T09:27:16.536Z,40.26
2019-03-27T09:28:20.998Z,40.29
2019-03-27T09:29:25.471Z,40.02
2019-03-27T09:30:30.113Z,40.17
2019-03-27T09:31:44.899Z,40.25
2019-03-27T09:32:40.671Z,39.85
2019-03-27T09:33:45.397Z,39.85
2019-03-27T09:34:49.867Z,40.13
2019-03-27T09:35:54.419Z,40.31
2019-03-27T09:36:58.858Z,40.53
2019-03-27T09:38:03.263Z,40.69
2019-03-27T09:39:10.459Z,40.84
2019-03-27T09:40:15.657Z,40.84
2019-03-27T09:41:21.595Z,40.62
2019-03-27T09:42:26.144Z,40.51
2019-03-27T09:43:31.071Z,40.48
2019-03-27T09:44:35.724Z,40.20
2019-03-27T09:45:40.639Z,40.09
2019-03-27T09:46:45.123Z,40.01
2019-03-27T09:47:49.666Z,40.00
2019-03-27T09:48:54.073Z,39.92
2019-03-27T09:49:58.548Z,39.75
2019-03-27T09:51:03.352Z,39.17
2019-03-27T09:52:08.275Z,38.88
2019-03-27T09:53:13.198Z,38.88
2019-03-27T09:54:17.746Z,38.88
2019-03-27T09:55:22.735Z,38.78
2019-03-27T09:56:27.269Z,38.36
2019-03-27T09:57:31.809Z,38.09
2019-03-27T09:58:37.188Z,37.98
2019-03-27T09:59:42.017Z,37.55
2019-03-27T10:01:11.537Z,37.17
2019-03-27T10:02:16.077Z,36.85
2019-03-27T10:03:20.860Z,36.86
2019-03-27T10:04:25.419Z,36.73
2019-03-27T10:05:29.984Z,36.28
2019-03-27T10:06:34.726Z,36.03
2019-03-27T10:07:39.515Z,35.87
2019-03-27T10:08:44.030Z,35.27
2019-03-27T10:09:50.296Z,34.00
2019-03-27T10:10:55.465Z,33.32
2019-03-27T10:11:59.988Z,33.49
2019-03-27T10:13:04.688Z,33.15
2019-03-27T10:14:09.144Z,33.27
2019-03-27T10:15:13.733Z,33.36
2019-03-27T10:16:18.479Z,33.49
2019-03-27T10:17:23.173Z,33.43
2019-03-27T10:18:28.105Z,33.60
2019-03-27T10:19:32.725Z,33.83
2019-03-27T10:20:37.287Z,33.88
2019-03-27T10:21:42.053Z,33.95
2019-03-27T10:22:46.746Z,34.09
2019-03-27T10:23:51.614Z,34.39
2019-03-27T10:24:55.982Z,34.22
2019-03-27T10:26:00.447Z,34.40
2019-03-27T10:27:04.978Z,34.66
2019-03-27T10:28:09.427Z,34.57
2019-03-27T10:29:13.879Z,34.58
2019-03-27T10:30:18.414Z,34.77
2019-03-27T10:31:23.034Z,34.72
2019-03-27T10:32:27.486Z,34.64
2019-03-27T10:33:31.861Z,34.73
2019-03-27T10:34:36.550Z,34.77
2019-03-27T10:35:41.257Z,34.73
2019-03-27T10:36:46.209Z,34.64
2019-03-27T10:37:50.735Z,34.56
2019-03-27T10:38:55.103Z,34.45
2019-03-27T10:39:59.488Z,34.36
2019-03-27T10:41:04.037Z,34.17
2019-03-27T10:42:08.492Z,34.01
2019-03-27T10:43:12.947Z,33.80
2019-03-27T10:44:17.812Z,33.62
2019-03-27T10:45:22.213Z,33.35
2019-03-27T10:46:26.664Z,33.13
2019-03-27T10:47:31.117Z,32.86
2019-03-27T10:48:35.500Z,32.24
2019-03-27T10:49:39.883Z,32.17
2019-03-27T10:50:44.347Z,32.34
2019-03-27T10:51:49.044Z,32.35
2019-03-27T10:52:53.671Z,32.23
2019-03-27T10:53:58.120Z,32.39
2019-03-27T10:55:02.895Z,32.60
2019-03-27T10:56:07.359Z,32.74
2019-03-27T10:57:11.883Z,32.91
2019-03-27T10:58:16.658Z,32.91
2019-03-27T10:59:21.098Z,33.01
2019-03-27T11:00:25.635Z,33.04
2019-03-27T11:01:30.417Z,33.02
2019-03-27T11:02:34.952Z,32.82
2019-03-27T11:03:39.324Z,32.88
2019-03-27T11:04:44.027Z,32.96
2019-03-27T11:05:48.581Z,32.71
2019-03-27T11:06:53.034Z,32.77
2019-03-27T11:07:57.433Z,32.86
2019-03-27T11:09:02.179Z,33.09
2019-03-27T11:10:07.139Z,33.13
2019-03-27T11:11:11.977Z,32.94
2019-03-27T11:12:17.049Z,32.67
2019-03-27T11:13:21.567Z,32.48
2019-03-27T11:14:37.357Z,32.68
2019-03-27T11:15:32.352Z,32.53
2019-03-27T11:16:36.849Z,32.50
2019-03-27T11:17:41.297Z,32.66
2019-03-27T11:18:45.859Z,32.79
2019-03-27T11:19:50.409Z,32.76
2019-03-27T11:20:54.883Z,32.60
2019-03-27T11:21:59.479Z,32.25
2019-03-27T11:23:04.043Z,32.13
2019-03-27T11:24:08.501Z,32.01
2019-03-27T11:25:13.194Z,31.95
2019-03-27T11:26:17.956Z,31.48
2019-03-27T11:27:23.143Z,31.51
2019-03-27T11:28:28.636Z,31.54
2019-03-27T11:29:33.589Z,31.69
2019-03-27T11:30:43.519Z,31.76
2019-03-27T11:31:48.274Z,31.79
2019-03-27T11:32:52.974Z,31.79
2019-03-27T11:33:57.676Z,31.81
2019-03-27T11:35:02.401Z,31.80
2019-03-27T11:36:06.989Z,31.57
2019-03-27T11:37:11.519Z,31.43
2019-03-27T11:38:16.291Z,31.31
2019-03-27T11:39:20.748Z,31.19
2019-03-27T11:40:25.450Z,31.15
2019-03-27T11:41:30.158Z,31.20
2019-03-27T11:42:34.697Z,31.05
2019-03-27T11:43:39.387Z,31.12
2019-03-27T11:44:44.023Z,31.04
2019-03-27T11:45:48.968Z,30.97
2019-03-27T11:46:53.849Z,30.92
2019-03-27T11:47:58.902Z,30.85
2019-03-27T11:49:03.277Z,30.67
2019-03-27T11:50:10.136Z,30.58
2019-03-27T11:51:14.984Z,30.31
2019-03-27T11:52:19.466Z,30.20
2019-03-27T11:53:24.452Z,29.95
2019-03-27T11:54:28.963Z,29.80
2019-03-27T11:55:33.539Z,29.79
2019-03-27T11:56:38.384Z,29.80
2019-03-27T11:57:43.178Z,29.85
2019-03-27T11:58:47.713Z,30.06
2019-03-27T11:59:54.162Z,30.01
2019-03-27T12:00:59.036Z,30.07
2019-03-27T12:02:03.589Z,30.13
2019-03-27T12:03:08.180Z,30.19
2019-03-27T12:04:13.020Z,29.71
2019-03-27T12:05:17.780Z,29.74
2019-03-27T12:06:22.559Z,29.94
2019-03-27T12:07:27.089Z,29.97
2019-03-27T12:08:31.625Z,30.05
2019-03-27T12:09:36.082Z,30.03
2019-03-27T12:10:40.469Z,30.07
2019-03-27T12:11:45.285Z,30.10
2019-03-27T12:12:49.736Z,30.04
2019-03-27T12:13:54.741Z,29.70
2019-03-27T12:14:59.582Z,29.87
2019-03-27T12:16:04.719Z,29.83
2019-03-27T12:17:09.275Z,30.10
2019-03-27T12:18:16.104Z,30.25
2019-03-27T12:19:20.652Z,30.16
2019-03-27T12:20:25.028Z,30.13
2019-03-27T12:21:29.759Z,30.23
2019-03-27T12:22:34.229Z,30.25
2019-03-27T12:23:38.764Z,30.32
2019-03-27T12:24:43.216Z,30.44
2019-03-27T12:25:47.750Z,30.52
2019-03-27T12:26:52.619Z,30.54
2019-03-27T12:27:57.088Z,30.64
2019-03-27T12:29:01.796Z,30.65
2019-03-27T12:30:07.152Z,30.65
2019-03-27T12:31:11.606Z,30.74
2019-03-27T12:32:16.318Z,30.62
2019-03-27T12:33:21.025Z,30.55
2019-03-27T12:34:25.647Z,30.31
2019-03-27T12:35:30.346Z,29.91
2019-03-27T12:36:37.343Z,29.78
2019-03-27T12:37:41.070Z,29.70
2019-03-27T12:38:46.014Z,29.56
2019-03-27T12:39:51.024Z,29.42
2019-03-27T12:40:55.648Z,29.28
2019-03-27T12:42:01.110Z,29.38
2019-03-27T12:43:05.703Z,29.40
2019-03-27T12:44:10.077Z,29.40
2019-03-27T12:45:14.714Z,29.18
2019-03-27T12:46:19.253Z,28.88
2019-03-27T12:47:24.235Z,28.39
2019-03-27T12:48:28.608Z,28.16
2019-03-27T12:49:33.297Z,28.42
2019-03-27T12:50:37.865Z,28.37
2019-03-27T12:51:42.646Z,28.58
2019-03-27T12:52:47.183Z,28.18
2019-03-27T12:53:51.970Z,28.28
2019-03-27T12:54:57.000Z,28.43
2019-03-27T12:56:01.701Z,28.44
2019-03-27T12:57:06.239Z,28.27
2019-03-27T12:58:11.859Z,28.23
2019-03-27T12:59:16.643Z,28.17
2019-03-27T13:00:21.499Z,28.09
2019-03-27T13:01:26.633Z,27.89
2019-03-27T13:02:31.464Z,27.79
2019-03-27T13:03:35.998Z,27.79
2019-03-27T13:04:40.940Z,27.67
2019-03-27T13:05:45.684Z,27.57
2019-03-27T13:06:50.281Z,27.44
2019-03-27T13:07:55.146Z,27.38
2019-03-27T13:09:00.296Z,27.38
2019-03-27T13:10:04.977Z,27.31
2019-03-27T13:11:09.436Z,27.33
2019-03-27T13:12:13.972Z,27.37
2019-03-27T13:13:18.728Z,27.19
2019-03-27T13:14:23.562Z,27.03
2019-03-27T13:15:28.430Z,27.28
2019-03-27T13:16:33.146Z,27.01
2019-03-27T13:17:38.192Z,27.03
2019-03-27T13:18:43.809Z,26.96
2019-03-27T13:19:48.788Z,26.90
2019-03-27T13:20:53.307Z,27.00
2019-03-27T13:21:57.759Z,26.90
2019-03-27T13:23:02.564Z,27.12
2019-03-27T13:24:07.391Z,27.12
2019-03-27T13:25:12.038Z,27.21
2019-03-27T13:26:16.416Z,27.50
2019-03-27T13:27:20.782Z,27.47
2019-03-27T13:28:25.190Z,27.48
2019-03-27T13:29:30.140Z,27.32
2019-03-27T13:30:34.683Z,27.44
2019-03-27T13:31:39.217Z,27.56
2019-03-27T13:32:44.233Z,27.69
2019-03-27T13:33:50.491Z,27.56
2019-03-27T13:34:55.628Z,27.87
2019-03-27T13:36:00.308Z,27.66
2019-03-27T13:37:05.185Z,27.82
2019-03-27T13:38:09.987Z,27.82
2019-03-27T13:39:14.516Z,27.88
2019-03-27T13:40:19.046Z,28.01
2019-03-27T13:41:23.418Z,28.00
2019-03-27T13:42:27.880Z,27.82
2019-03-27T13:43:32.905Z,27.69
2019-03-27T13:44:37.928Z,27.77
2019-03-27T13:45:42.391Z,27.87
2019-03-27T13:46:47.176Z,27.99
2019-03-27T13:47:52.103Z,27.82
2019-03-27T13:48:56.886Z,27.72
2019-03-27T13:50:01.350Z,27.61
2019-03-27T13:51:06.060Z,27.43
2019-03-27T13:52:10.759Z,27.44
2019-03-27T13:53:15.660Z,27.46
2019-03-27T13:54:20.128Z,27.57